createdAt,value
2023-12-07T15:19:59.357Z,50.00
2023-12-07T15:20:59.339Z,50.00
2023-12-07T15:21:59.249Z,50.00
2023-12-07T15:22:59.255Z,50.00
2023-12-07T15:23:59.888Z,50.00
2023-12-07T15:24:59.271Z,0.00
2023-12-07T15:25:59.283Z,0.00
2023-12-07T15:26:59.314Z,0.00
2023-12-07T15:27:59.301Z,0.00
2023-12-07T15:28:59.326Z,0.00
2023-12-07T15:29:59.312Z,0.00
2023-12-07T15:30:59.318Z,0.00
2023-12-07T15:31:59.335Z,0.00
2023-12-07T15:32:59.311Z,0.00
2023-12-07T15:33:59.678Z,0.00
2023-12-07T15:34:59.368Z,0.00
2023-12-07T15:35:59.328Z,0.00
2023-12-07T15:36:59.238Z,0.00
2023-12-07T15:37:59.272Z,0.00
2023-12-07T15:38:59.416Z,0.00
2023-12-07T15:39:59.345Z,0.00
2023-12-07T15:40:59.343Z,0.00
2023-12-07T15:42:00.056Z,0.00
2023-12-07T15:42:59.497Z,0.00
2023-12-07T15:43:59.577Z,0.00
2023-12-07T15:44:59.604Z,0.00
2023-12-07T15:45:59.643Z,0.00
2023-12-07T15:46:59.947Z,0.00
2023-12-07T15:47:59.979Z,0.00
2023-12-07T15:49:00.017Z,0.00
2023-12-07T15:50:00.006Z,0.00
2023-12-07T15:51:00.033Z,0.00
2023-12-07T15:52:01.316Z,0.00
2023-12-07T15:53:00.206Z,0.00
2023-12-07T15:54:00.268Z,0.00
2023-12-07T15:55:00.283Z,0.00
2023-12-07T15:56:00.355Z,0.00
2023-12-07T15:57:00.472Z,0.00
2023-12-07T15:58:00.490Z,0.00
2023-12-07T15:59:00.579Z,0.00
2023-12-07T16:00:00.646Z,0.00
2023-12-07T16:01:00.747Z,0.00
2023-12-07T16:02:00.794Z,0.00
2023-12-07T16:03:00.838Z,0.00
2023-12-07T16:04:00.914Z,12.34
2023-12-07T16:05:00.990Z,29.89
2023-12-07T16:06:01.128Z,45.39
2023-12-07T16:07:01.149Z,53.41
2023-12-07T16:08:01.261Z,49.49
2023-12-07T16:09:01.979Z,50.57
2023-12-07T16:10:01.491Z,51.53
2023-12-07T16:11:01.421Z,51.10
2023-12-07T16:12:01.678Z,50.95
2023-12-07T16:13:01.540Z,51.19
2023-12-07T16:14:01.615Z,51.05
2023-12-07T16:15:01.692Z,51.66
2023-12-07T16:16:01.767Z,50.44
2023-12-07T16:17:01.807Z,50.00
2023-12-07T16:18:01.966Z,51.86
2023-12-07T16:19:02.048Z,51.06
2023-12-07T16:20:02.035Z,53.40
2023-12-07T16:21:02.070Z,50.03
2023-12-07T16:22:02.103Z,50.00
2023-12-07T16:23:02.152Z,51.75
2023-12-07T16:24:02.977Z,51.80
2023-12-07T16:25:02.274Z,52.97
2023-12-07T16:26:02.364Z,50.80
2023-12-07T16:27:05.061Z,50.00
2023-12-07T16:28:02.405Z,50.06
2023-12-07T16:29:02.409Z,47.45
2023-12-07T16:30:02.439Z,45.74
2023-12-07T16:31:02.476Z,43.54
2023-12-07T16:32:02.437Z,42.14
2023-12-07T16:33:02.541Z,51.31
2023-12-07T16:34:04.470Z,52.07
2023-12-07T16:35:02.618Z,51.80
2023-12-07T16:36:05.986Z,50.00
2023-12-07T16:37:03.659Z,50.02
2023-12-07T16:38:02.674Z,49.76
2023-12-07T16:39:02.770Z,47.24
2023-12-07T16:40:02.695Z,44.26
2023-12-07T16:41:02.748Z,44.27
2023-12-07T16:42:03.557Z,50.73
2023-12-07T16:43:02.668Z,50.25
2023-12-07T16:44:02.740Z,54.20
2023-12-07T16:45:02.782Z,60.00
2023-12-07T16:46:02.793Z,63.79
2023-12-07T16:47:02.844Z,55.18
2023-12-07T16:48:03.041Z,57.00
2023-12-07T16:49:03.115Z,57.33
2023-12-07T16:50:03.138Z,56.05
2023-12-07T16:51:03.182Z,56.02
2023-12-07T16:52:03.248Z,56.42
2023-12-07T16:53:03.239Z,55.43
2023-12-07T16:54:03.358Z,55.73
2023-12-07T16:55:03.390Z,54.70
2023-12-07T16:56:03.432Z,56.25
2023-12-07T16:57:03.571Z,55.48
2023-12-07T16:58:03.590Z,50.71
2023-12-07T16:59:03.712Z,54.06
2023-12-07T17:00:03.771Z,55.10
2023-12-07T17:01:03.811Z,50.00
2023-12-07T17:02:03.823Z,50.00
2023-12-07T17:03:04.037Z,52.74
2023-12-07T17:04:04.128Z,55.05
2023-12-07T17:05:04.092Z,51.77
2023-12-07T17:06:04.128Z,54.30
2023-12-07T17:07:04.104Z,53.98
2023-12-07T17:08:04.165Z,52.63
2023-12-07T17:09:11.467Z,50.38
2023-12-07T17:10:05.239Z,50.41
2023-12-07T17:11:04.225Z,50.42
2023-12-07T17:12:04.362Z,51.82
2023-12-07T17:13:04.250Z,45.77
2023-12-07T17:14:04.259Z,45.55
2023-12-07T17:15:04.285Z,50.00
2023-12-07T17:16:04.221Z,57.09
2023-12-07T17:17:04.237Z,51.24
2023-12-07T17:18:04.587Z,57.09
2023-12-07T17:19:04.536Z,52.85
2023-12-07T17:20:04.491Z,50.25
2023-12-07T17:21:04.307Z,50.00
2023-12-07T17:22:04.308Z,56.92
2023-12-07T17:23:04.349Z,55.68
2023-12-07T17:24:04.389Z,56.60
2023-12-07T17:25:04.388Z,53.77
2023-12-07T17:26:04.370Z,50.00
2023-12-07T17:27:04.390Z,52.85
2023-12-07T17:28:04.403Z,60.64
2023-12-07T17:29:04.459Z,53.62
2023-12-07T17:30:04.514Z,52.37
2023-12-07T17:31:04.467Z,54.10
2023-12-07T17:32:04.498Z,54.12
2023-12-07T17:33:04.718Z,53.67
2023-12-07T17:34:04.691Z,51.50
2023-12-07T17:35:04.602Z,53.17
2023-12-07T17:36:04.729Z,52.64
2023-12-07T17:37:04.670Z,56.95
2023-12-07T17:38:04.669Z,50.00
2023-12-07T17:39:04.719Z,52.68
2023-12-07T17:40:04.731Z,55.68
2023-12-07T17:41:04.739Z,54.53
2023-12-07T17:42:04.836Z,52.68
2023-12-07T17:43:04.816Z,51.90
2023-12-07T17:44:04.894Z,57.85
2023-12-07T17:45:04.936Z,57.74
2023-12-07T17:46:04.944Z,51.80
2023-12-07T17:47:04.940Z,50.66
2023-12-07T17:48:05.051Z,52.82
2023-12-07T17:49:05.281Z,53.39
2023-12-07T17:50:05.073Z,52.83
2023-12-07T17:51:05.148Z,55.24
2023-12-07T17:52:05.160Z,53.85
2023-12-07T17:53:05.249Z,53.15
2023-12-07T17:54:05.338Z,53.70
2023-12-07T17:55:05.303Z,55.11
2023-12-07T17:56:05.306Z,56.65
2023-12-07T17:57:05.367Z,53.83
2023-12-07T17:58:05.383Z,58.21
2023-12-07T17:59:05.427Z,54.05
2023-12-07T18:00:05.497Z,53.98
2023-12-07T18:01:05.425Z,49.86
2023-12-07T18:02:05.463Z,55.30
2023-12-07T18:03:05.462Z,57.30
2023-12-07T18:04:05.570Z,58.55
2023-12-07T18:05:05.449Z,55.24
2023-12-07T18:06:05.504Z,57.69
2023-12-07T18:07:05.515Z,54.53
2023-12-07T18:08:06.442Z,57.44
2023-12-07T18:09:05.695Z,54.38
2023-12-07T18:10:07.118Z,57.57
2023-12-07T18:11:05.540Z,56.22
2023-12-07T18:12:05.595Z,57.85
2023-12-07T18:13:05.497Z,55.20
2023-12-07T18:14:05.533Z,57.96
2023-12-07T18:15:05.532Z,54.67
2023-12-07T18:16:05.515Z,54.79
2023-12-07T18:17:05.508Z,51.98
2023-12-07T18:18:05.542Z,53.05
2023-12-07T18:19:05.699Z,55.81
2023-12-07T18:20:05.570Z,54.28
2023-12-07T18:21:05.582Z,56.49
2023-12-07T18:22:05.542Z,53.79
2023-12-07T18:23:05.615Z,55.25
2023-12-07T18:24:05.592Z,60.42
2023-12-07T18:25:05.689Z,58.08
2023-12-07T18:26:05.547Z,54.26
2023-12-07T18:27:05.606Z,52.56
2023-12-07T18:28:05.584Z,58.78
2023-12-07T18:29:05.601Z,58.33
2023-12-07T18:30:05.745Z,53.13
2023-12-07T18:31:05.673Z,55.77
2023-12-07T18:32:05.581Z,55.36
2023-12-07T18:33:05.738Z,55.72
2023-12-07T18:34:05.698Z,56.55
2023-12-07T18:35:05.662Z,57.54
2023-12-07T18:36:05.706Z,56.96
2023-12-07T18:37:05.673Z,54.16
2023-12-07T18:38:05.661Z,58.01
2023-12-07T18:39:05.681Z,54.56
2023-12-07T18:40:05.746Z,54.18
2023-12-07T18:41:05.677Z,58.99
2023-12-07T18:42:05.729Z,52.35
2023-12-07T18:43:05.718Z,59.79
2023-12-07T18:44:05.741Z,55.78
2023-12-07T18:45:05.825Z,50.17
2023-12-07T18:46:05.718Z,56.40
2023-12-07T18:47:05.714Z,59.20
2023-12-07T18:48:05.911Z,53.16
2023-12-07T18:49:05.840Z,55.93
2023-12-07T18:50:05.747Z,58.71
2023-12-07T18:51:05.772Z,59.48
2023-12-07T18:52:05.754Z,53.09
2023-12-07T18:53:05.753Z,57.31
2023-12-07T18:54:05.962Z,58.51
2023-12-07T18:55:05.802Z,55.75
2023-12-07T18:56:05.805Z,57.75
2023-12-07T18:57:05.874Z,59.86
2023-12-07T18:58:05.859Z,56.62
2023-12-07T18:59:05.897Z,58.83
2023-12-07T19:00:05.926Z,60.69
2023-12-07T19:01:05.935Z,60.55
2023-12-07T19:02:05.906Z,59.20
2023-12-07T19:03:05.971Z,60.56
2023-12-07T19:04:06.027Z,56.29
2023-12-07T19:05:06.054Z,52.96
2023-12-07T19:06:06.156Z,59.24
2023-12-07T19:07:05.987Z,58.66
2023-12-07T19:08:06.031Z,60.04
2023-12-07T19:09:06.038Z,59.06
2023-12-07T19:10:06.060Z,58.17
2023-12-07T19:11:06.135Z,60.92
2023-12-07T19:12:06.092Z,59.80
2023-12-07T19:13:06.078Z,60.66
2023-12-07T19:14:06.172Z,59.73
2023-12-07T19:15:06.174Z,58.63
2023-12-07T19:16:06.185Z,58.99
2023-12-07T19:17:06.273Z,58.94
2023-12-07T19:18:06.389Z,55.10
2023-12-07T19:19:06.358Z,61.99
2023-12-07T19:20:06.247Z,54.70
2023-12-07T19:21:06.361Z,58.85
2023-12-07T19:22:06.301Z,60.74
2023-12-07T19:23:06.300Z,60.12
2023-12-07T19:24:06.420Z,61.12
2023-12-07T19:25:06.349Z,60.72
2023-12-07T19:26:06.353Z,60.31
2023-12-07T19:27:06.476Z,60.85
2023-12-07T19:28:06.391Z,59.68
2023-12-07T19:29:06.396Z,60.10
2023-12-07T19:30:06.564Z,58.69
2023-12-07T19:31:06.485Z,60.44
2023-12-07T19:32:06.455Z,60.52
2023-12-07T19:33:06.570Z,60.84
2023-12-07T19:34:06.671Z,60.15
2023-12-07T19:35:06.505Z,58.78
2023-12-07T19:36:06.601Z,61.00
2023-12-07T19:37:06.566Z,61.83
2023-12-07T19:38:06.566Z,57.76
2023-12-07T19:39:06.586Z,60.53
2023-12-07T19:40:06.579Z,60.06
2023-12-07T19:41:06.679Z,62.15
2023-12-07T19:42:06.743Z,56.71
2023-12-07T19:43:06.656Z,62.20
2023-12-07T19:44:06.727Z,62.44
2023-12-07T19:45:06.850Z,60.32
2023-12-07T19:46:06.782Z,62.13
2023-12-07T19:47:06.765Z,59.71
2023-12-07T19:48:06.898Z,61.72
2023-12-07T19:49:06.999Z,62.20
2023-12-07T19:50:06.858Z,59.94
2023-12-07T19:51:06.874Z,62.55
2023-12-07T19:52:06.918Z,61.84
2023-12-07T19:53:06.922Z,61.21
2023-12-07T19:54:07.047Z,61.79
2023-12-07T19:55:06.961Z,61.54
2023-12-07T19:56:06.997Z,60.64
2023-12-07T19:57:07.044Z,61.61
2023-12-07T19:58:07.017Z,62.28
2023-12-07T19:59:07.051Z,61.47
2023-12-07T20:00:07.186Z,62.64
2023-12-07T20:01:07.116Z,56.28
2023-12-07T20:02:07.127Z,62.02
2023-12-07T20:03:07.179Z,61.36
2023-12-07T20:04:07.193Z,62.90
2023-12-07T20:05:07.252Z,61.92
2023-12-07T20:06:07.289Z,63.21
2023-12-07T20:07:07.263Z,62.17
2023-12-07T20:08:07.349Z,61.31
2023-12-07T20:09:07.505Z,63.30
2023-12-07T20:10:07.356Z,57.84
2023-12-07T20:11:07.385Z,62.28
2023-12-07T20:12:07.426Z,62.27
2023-12-07T20:13:07.543Z,60.67
2023-12-07T20:14:07.425Z,61.50
2023-12-07T20:15:07.561Z,59.43
2023-12-07T20:16:07.505Z,61.58
2023-12-07T20:17:07.560Z,62.85
2023-12-07T20:18:07.690Z,63.07
2023-12-07T20:19:07.801Z,61.72
2023-12-07T20:20:07.696Z,62.44
2023-12-07T20:21:07.751Z,60.79
2023-12-07T20:22:07.693Z,62.25
2023-12-07T20:23:07.711Z,64.26
2023-12-07T20:24:07.791Z,62.36
2023-12-07T20:25:07.848Z,64.35
2023-12-07T20:26:07.824Z,62.67
2023-12-07T20:27:07.881Z,62.82
2023-12-07T20:28:07.900Z,62.36
2023-12-07T20:29:07.897Z,62.40
2023-12-07T20:30:08.070Z,62.89
2023-12-07T20:31:07.990Z,62.63
2023-12-07T20:32:08.021Z,63.40
2023-12-07T20:33:08.092Z,64.05
2023-12-07T20:34:08.196Z,61.79
2023-12-07T20:35:08.216Z,62.75
2023-12-07T20:36:08.132Z,63.68
2023-12-07T20:37:08.161Z,63.60
2023-12-07T20:38:08.170Z,65.52
2023-12-07T20:39:08.677Z,64.71
2023-12-07T20:40:08.207Z,63.29
2023-12-07T20:41:08.354Z,63.73
2023-12-07T20:42:09.465Z,63.80
2023-12-07T20:43:08.299Z,64.47
2023-12-07T20:44:08.360Z,63.93
2023-12-07T20:45:08.397Z,65.30
2023-12-07T20:46:08.431Z,64.02
2023-12-07T20:47:08.434Z,63.77
2023-12-07T20:48:08.598Z,65.25
2023-12-07T20:49:08.590Z,66.65
2023-12-07T20:50:08.553Z,64.85
2023-12-07T20:51:48.252Z,50.00
2023-12-07T20:52:48.251Z,50.00
2023-12-07T20:53:48.238Z,50.00
2023-12-07T20:54:48.554Z,50.00
2023-12-07T20:55:48.231Z,50.00
2023-12-07T20:56:48.238Z,51.07
2023-12-07T20:57:48.210Z,51.55
2023-12-07T20:58:48.206Z,50.00
2023-12-07T20:59:48.259Z,52.81
2023-12-07T21:00:48.291Z,51.07
2023-12-07T21:01:48.262Z,51.25
2023-12-07T21:02:48.281Z,50.00
2023-12-07T21:03:48.259Z,51.91
2023-12-07T21:04:48.251Z,53.97
2023-12-07T21:05:48.201Z,52.28
2023-12-07T21:06:48.211Z,52.22
2023-12-07T21:07:48.247Z,52.45
2023-12-07T21:08:48.244Z,53.07
2023-12-07T21:09:48.250Z,53.68
2023-12-07T21:10:48.218Z,52.29
2023-12-07T21:11:48.246Z,50.26
2023-12-07T21:12:48.225Z,53.05
2023-12-07T21:13:48.246Z,52.71
2023-12-07T21:14:48.328Z,53.63
2023-12-07T21:15:48.214Z,53.11
2023-12-07T21:16:48.221Z,53.35
2023-12-07T21:17:48.336Z,52.92
2023-12-07T21:18:48.328Z,52.91
2023-12-07T21:19:48.286Z,53.97
2023-12-07T21:20:48.286Z,51.22
2023-12-07T21:21:48.247Z,52.12
2023-12-07T21:22:48.244Z,53.42
2023-12-07T21:23:48.264Z,53.22
2023-12-07T21:24:48.254Z,52.96
2023-12-07T21:25:48.294Z,54.09
2023-12-07T21:26:48.360Z,52.76
2023-12-07T21:27:48.338Z,53.29
2023-12-07T21:28:48.436Z,53.27
2023-12-07T21:29:48.458Z,52.44
2023-12-07T21:30:48.569Z,53.50
2023-12-07T21:31:48.523Z,53.26
2023-12-07T21:32:48.742Z,52.73
2023-12-07T21:33:48.728Z,53.72
2023-12-07T21:34:48.654Z,52.84
2023-12-07T21:35:48.729Z,53.36
2023-12-07T21:36:48.753Z,53.75
2023-12-07T21:37:48.821Z,52.22
2023-12-07T21:38:48.846Z,54.65
2023-12-07T21:39:48.898Z,54.69
2023-12-07T21:40:48.910Z,52.87
2023-12-07T21:41:48.995Z,52.66
2023-12-07T21:42:49.002Z,52.97
2023-12-07T21:43:49.073Z,53.90
2023-12-07T21:44:49.188Z,54.18
2023-12-07T21:45:49.184Z,52.32
2023-12-07T21:46:49.196Z,55.35
2023-12-07T21:47:49.341Z,54.11
2023-12-07T21:48:49.389Z,54.03
2023-12-07T21:49:49.412Z,54.00
2023-12-07T21:50:49.378Z,55.21
2023-12-07T21:51:49.478Z,53.14
2023-12-07T21:52:49.518Z,54.85
2023-12-07T21:53:49.522Z,53.97
2023-12-07T21:54:49.555Z,53.67
2023-12-07T21:55:49.582Z,54.36
2023-12-07T21:56:49.691Z,54.48
2023-12-07T21:57:49.716Z,54.10
2023-12-07T21:58:49.735Z,54.00
2023-12-07T21:59:49.843Z,54.97
2023-12-07T22:00:49.843Z,53.79
2023-12-07T22:01:49.872Z,56.24
2023-12-07T22:02:49.972Z,55.59
2023-12-07T22:03:49.962Z,55.40
2023-12-07T22:04:50.029Z,53.95
2023-12-07T22:05:50.123Z,55.90
2023-12-07T22:06:50.114Z,55.09
2023-12-07T22:07:50.169Z,55.69
2023-12-07T22:08:50.203Z,54.91
2023-12-07T22:09:50.244Z,54.28
2023-12-07T22:10:50.339Z,54.08
2023-12-07T22:11:50.383Z,56.82
2023-12-07T22:12:50.402Z,56.65
2023-12-07T22:13:50.422Z,56.11
2023-12-07T22:14:50.556Z,55.34
2023-12-07T22:15:50.476Z,57.24
2023-12-07T22:16:50.555Z,56.29
2023-12-07T22:17:50.761Z,55.27
2023-12-07T22:18:50.793Z,57.26
2023-12-07T22:19:50.769Z,56.59
2023-12-07T22:20:50.774Z,56.62
2023-12-07T22:21:50.765Z,57.18
2023-12-07T22:22:50.832Z,56.70
2023-12-07T22:23:50.857Z,56.65
2023-12-07T22:24:50.891Z,56.00
2023-12-07T22:25:50.957Z,58.31
2023-12-07T22:26:51.008Z,57.86
2023-12-07T22:27:51.036Z,56.58
2023-12-07T22:28:51.077Z,58.23
2023-12-07T22:29:51.206Z,57.45
2023-12-07T22:30:51.156Z,57.81
2023-12-07T22:31:51.218Z,58.38
2023-12-07T22:32:51.400Z,57.68
2023-12-07T22:34:00.484Z,59.11
2023-12-07T22:34:52.470Z,59.22
2023-12-07T22:35:51.454Z,59.25
2023-12-07T22:36:51.352Z,58.64
2023-12-07T22:37:51.347Z,60.21
2023-12-07T22:38:51.352Z,60.47
2023-12-07T22:39:51.309Z,60.27
2023-12-07T22:40:51.349Z,58.04
2023-12-07T22:41:51.320Z,58.54
2023-12-07T22:42:51.313Z,60.68
2023-12-07T22:43:51.337Z,60.23
2023-12-07T22:44:51.353Z,58.63
2023-12-07T22:45:51.338Z,61.13
2023-12-07T22:46:51.368Z,59.73
2023-12-07T22:47:51.584Z,59.35
2023-12-07T22:48:51.768Z,61.45
2023-12-07T22:49:51.498Z,61.20
2023-12-07T22:50:51.581Z,61.94
2023-12-07T22:51:51.635Z,61.57
2023-12-07T22:52:51.652Z,60.35
2023-12-07T22:53:51.703Z,62.33
2023-12-07T22:54:51.737Z,62.19
2023-12-07T22:55:51.829Z,60.18
2023-12-07T22:56:51.829Z,61.13
2023-12-07T22:57:51.847Z,62.33
2023-12-07T22:58:51.948Z,63.06
2023-12-07T22:59:51.990Z,61.30
2023-12-07T23:00:52.149Z,63.05
2023-12-07T23:01:52.053Z,61.55
2023-12-07T23:02:52.199Z,61.16
2023-12-07T23:03:52.203Z,63.45
2023-12-07T23:04:52.274Z,63.38
2023-12-07T23:05:52.367Z,62.45
2023-12-07T23:06:52.296Z,61.90
2023-12-07T23:07:52.356Z,63.03
2023-12-07T23:08:52.450Z,63.06
2023-12-07T23:09:52.492Z,64.82
2023-12-07T23:10:52.552Z,63.23
2023-12-07T23:11:52.642Z,63.51
2023-12-07T23:12:52.608Z,63.46
2023-12-07T23:13:52.682Z,62.64
2023-12-07T23:14:52.747Z,63.21
2023-12-07T23:15:52.785Z,62.69
2023-12-07T23:16:52.853Z,64.22
2023-12-07T23:17:53.000Z,63.59
2023-12-07T23:18:53.094Z,65.39
2023-12-07T23:19:52.990Z,64.59
2023-12-07T23:20:53.080Z,64.16
2023-12-07T23:21:53.114Z,63.39
2023-12-07T23:22:53.168Z,65.70
2023-12-07T23:23:53.238Z,63.65
2023-12-07T23:24:53.272Z,65.64
2023-12-07T23:25:53.315Z,63.50
2023-12-07T23:26:53.463Z,65.45
2023-12-07T23:27:53.463Z,65.75
2023-12-07T23:28:53.478Z,63.95
2023-12-07T23:29:55.222Z,65.80
2023-12-07T23:30:53.603Z,66.20
2023-12-07T23:31:53.638Z,65.33
2023-12-07T23:32:53.787Z,66.58
2023-12-07T23:33:53.877Z,67.01
2023-12-07T23:34:53.976Z,66.38
2023-12-07T23:35:53.915Z,67.55
2023-12-07T23:36:53.897Z,65.05
2023-12-07T23:37:54.010Z,64.96
2023-12-07T23:38:54.108Z,65.88
2023-12-07T23:39:54.088Z,66.77
2023-12-07T23:40:54.136Z,67.11
2023-12-07T23:41:54.279Z,66.31
2023-12-07T23:42:54.305Z,65.51
2023-12-07T23:43:54.328Z,65.23
2023-12-07T23:44:54.430Z,65.26
2023-12-07T23:45:54.456Z,65.91
2023-12-07T23:46:54.530Z,65.51
2023-12-07T23:47:54.566Z,66.43
2023-12-07T23:48:54.746Z,66.51
2023-12-07T23:49:54.712Z,67.57
2023-12-07T23:50:54.853Z,67.44
2023-12-07T23:51:54.802Z,66.74
2023-12-07T23:52:54.880Z,66.13
2023-12-07T23:53:55.018Z,66.59
2023-12-07T23:54:54.993Z,66.99
2023-12-07T23:55:55.069Z,67.94
2023-12-07T23:56:55.175Z,67.00
2023-12-07T23:57:55.179Z,66.91
2023-12-07T23:58:55.206Z,68.34
2023-12-07T23:59:55.337Z,69.43
